createdAt,value
2017-05-26T00:01:37.774Z,51.20
2017-05-26T00:04:06.805Z,51.20
2017-05-26T00:06:35.819Z,51.20
2017-05-26T00:09:04.838Z,51.20
2017-05-26T00:11:33.863Z,51.20
2017-05-26T00:14:02.885Z,51.30
2017-05-26T00:16:31.920Z,51.40
2017-05-26T00:19:00.953Z,51.60
2017-05-26T00:21:29.956Z,51.80
2017-05-26T00:23:58.971Z,52.30
2017-05-26T00:26:28.001Z,52.30
2017-05-26T00:28:57.022Z,52.10
2017-05-26T00:31:26.049Z,52.20
2017-05-26T00:33:55.180Z,52.20
2017-05-26T00:36:24.183Z,52.20
2017-05-26T00:38:53.221Z,52.30
2017-05-26T00:41:22.261Z,52.30
2017-05-26T00:43:51.274Z,52.20
2017-05-26T00:46:20.285Z,52.40
2017-05-26T00:48:49.356Z,52.30
2017-05-26T00:51:18.363Z,52.40
2017-05-26T00:53:47.389Z,52.20
2017-05-26T00:56:16.420Z,52.80
2017-05-26T00:58:45.432Z,52.80
2017-05-26T01:01:14.448Z,52.90
2017-05-26T01:03:43.477Z,52.80
2017-05-26T01:06:12.604Z,53.50
2017-05-26T01:08:41.621Z,53.00
2017-05-26T01:11:10.646Z,53.20
2017-05-26T01:13:39.704Z,53.40
2017-05-26T01:16:08.712Z,53.40
2017-05-26T01:18:37.730Z,53.30
2017-05-26T01:21:06.762Z,53.20
2017-05-26T01:23:35.803Z,53.20
2017-05-26T01:26:04.800Z,53.10
2017-05-26T01:28:33.822Z,53.20
2017-05-26T01:31:02.984Z,53.40
2017-05-26T01:33:32.167Z,53.10
2017-05-26T01:36:01.241Z,53.20
2017-05-26T01:38:30.252Z,53.30
2017-05-26T01:40:59.310Z,53.50
2017-05-26T01:43:28.347Z,53.70
2017-05-26T01:45:57.352Z,53.80
2017-05-26T01:48:26.396Z,54.10
2017-05-26T01:50:55.408Z,54.30
2017-05-26T01:53:24.441Z,54.30
2017-05-26T01:55:53.452Z,54.40
2017-05-26T01:58:22.460Z,54.50
2017-05-26T02:00:51.497Z,54.50
2017-05-26T02:03:20.517Z,54.70
2017-05-26T02:05:49.540Z,55.00
2017-05-26T02:08:18.565Z,55.40
2017-05-26T02:10:47.572Z,55.20
2017-05-26T02:13:16.603Z,54.80
2017-05-26T02:15:45.639Z,54.70
2017-05-26T02:18:14.644Z,54.60
2017-05-26T02:20:43.693Z,54.70
2017-05-26T02:23:12.823Z,54.60
2017-05-26T02:25:41.824Z,54.70
2017-05-26T02:28:10.863Z,54.70
2017-05-26T02:30:39.886Z,54.70
2017-05-26T02:33:08.901Z,54.60
2017-05-26T02:35:37.918Z,55.00
2017-05-26T02:38:06.954Z,54.60
2017-05-26T02:40:35.974Z,54.70
2017-05-26T02:43:04.983Z,54.70
2017-05-26T02:45:34.029Z,55.00
2017-05-26T02:48:03.044Z,54.90
2017-05-26T02:50:32.065Z,54.80
2017-05-26T02:53:01.099Z,54.80
2017-05-26T02:55:30.252Z,54.80
2017-05-26T02:57:59.263Z,54.60
2017-05-26T03:00:28.272Z,54.50
2017-05-26T03:02:57.302Z,54.40
2017-05-26T03:05:26.336Z,54.40
2017-05-26T03:07:55.350Z,54.40
2017-05-26T03:10:24.364Z,54.30
2017-05-26T03:12:53.399Z,54.30
2017-05-26T03:15:22.414Z,54.30
2017-05-26T03:17:51.431Z,54.90
2017-05-26T03:20:20.460Z,54.20
2017-05-26T03:22:49.484Z,54.10
2017-05-26T03:25:18.498Z,54.90
2017-05-26T03:27:47.525Z,54.50
2017-05-26T03:30:16.559Z,54.70
2017-05-26T03:32:45.573Z,54.80
2017-05-26T03:35:14.643Z,55.00
2017-05-26T03:37:43.676Z,55.10
2017-05-26T03:40:12.700Z,55.80
2017-05-26T03:42:41.729Z,55.20
2017-05-26T03:45:10.828Z,55.20
2017-05-26T03:47:39.811Z,55.20
2017-05-26T03:50:08.866Z,55.20
2017-05-26T03:52:37.915Z,55.10
2017-05-26T03:55:06.908Z,55.00
2017-05-26T03:57:35.972Z,55.10
2017-05-26T04:00:04.973Z,55.10
2017-05-26T04:02:34.000Z,55.40
2017-05-26T04:05:03.020Z,55.40
2017-05-26T04:07:32.049Z,55.10
2017-05-26T04:10:01.059Z,55.30
2017-05-26T04:12:30.614Z,55.50
2017-05-26T04:14:59.625Z,55.40
2017-05-26T04:17:28.660Z,55.50
2017-05-26T04:19:57.697Z,55.60
2017-05-26T04:22:26.723Z,55.70
2017-05-26T04:24:55.726Z,55.80
2017-05-26T04:27:24.769Z,55.90
2017-05-26T04:29:53.780Z,56.10
2017-05-26T04:32:22.800Z,56.00
2017-05-26T04:34:51.834Z,55.80
2017-05-26T04:37:20.884Z,55.30
2017-05-26T04:39:49.924Z,55.30
2017-05-26T04:42:18.945Z,55.40
2017-05-26T04:44:47.977Z,55.30
2017-05-26T04:47:16.996Z,55.20
2017-05-26T04:49:46.015Z,55.50
2017-05-26T04:52:15.047Z,55.30
2017-05-26T04:54:44.051Z,55.20
2017-05-26T04:57:13.080Z,55.20
2017-05-26T04:59:42.114Z,55.70
2017-05-26T05:02:11.150Z,56.00
2017-05-26T05:04:40.246Z,56.60
2017-05-26T05:07:09.342Z,56.80
2017-05-26T05:09:38.746Z,57.20
2017-05-26T05:12:07.758Z,57.50
2017-05-26T05:14:36.791Z,57.60
2017-05-26T05:17:05.812Z,57.50
2017-05-26T05:19:34.832Z,57.80
2017-05-26T05:22:03.865Z,58.00
2017-05-26T05:24:32.908Z,58.10
2017-05-26T05:27:01.918Z,57.90
2017-05-26T05:29:30.933Z,57.90
2017-05-26T05:31:59.979Z,57.80
2017-05-26T05:34:29.003Z,58.10
2017-05-26T05:36:58.037Z,58.00
2017-05-26T05:39:27.048Z,58.00
2017-05-26T05:41:56.091Z,58.10
2017-05-26T05:44:25.125Z,58.00
2017-05-26T05:46:54.146Z,58.00
2017-05-26T05:49:23.188Z,57.90
2017-05-26T05:51:52.221Z,58.10
2017-05-26T05:54:21.240Z,58.40
2017-05-26T05:56:50.297Z,58.40
2017-05-26T05:59:19.306Z,58.40
2017-05-26T06:01:54.813Z,59.00
2017-05-26T06:04:23.844Z,58.90
2017-05-26T06:06:52.880Z,58.90
2017-05-26T06:09:21.892Z,58.70
2017-05-26T06:11:50.920Z,58.50
2017-05-26T06:14:19.957Z,59.00
2017-05-26T06:16:48.981Z,58.00
2017-05-26T06:19:17.996Z,57.50
2017-05-26T06:21:47.016Z,57.30
2017-05-26T06:24:16.063Z,58.00
2017-05-26T06:26:45.082Z,57.00
2017-05-26T06:29:14.091Z,57.30
2017-05-26T06:31:43.135Z,56.60
2017-05-26T06:34:12.737Z,56.40
2017-05-26T06:36:41.747Z,56.30
2017-05-26T06:39:10.788Z,56.30
2017-05-26T06:41:39.789Z,56.40
2017-05-26T06:44:08.801Z,56.40
2017-05-26T06:46:37.854Z,56.50
2017-05-26T06:49:06.869Z,56.60
2017-05-26T06:51:35.930Z,56.50
2017-05-26T06:54:04.995Z,55.80
2017-05-26T06:56:33.983Z,55.70
2017-05-26T06:59:03.013Z,55.60
2017-05-26T07:01:32.040Z,55.80
2017-05-26T07:04:01.079Z,55.10
2017-05-26T07:06:30.110Z,55.10
2017-05-26T07:08:59.130Z,55.10
2017-05-26T07:11:28.201Z,55.10
2017-05-26T07:13:57.170Z,55.00
2017-05-26T07:16:26.193Z,54.90
2017-05-26T07:18:55.217Z,54.80
2017-05-26T07:21:24.229Z,54.40
2017-05-26T07:23:53.289Z,54.20
2017-05-26T07:26:22.293Z,53.90
2017-05-26T07:28:51.308Z,53.50
2017-05-26T07:31:20.355Z,53.40
2017-05-26T07:33:49.369Z,52.90
2017-05-26T07:36:18.381Z,52.90
2017-05-26T07:38:47.430Z,53.00
2017-05-26T07:41:16.443Z,53.20
2017-05-26T07:43:45.476Z,53.10
2017-05-26T07:46:14.505Z,53.10
2017-05-26T07:48:43.557Z,53.10
2017-05-26T07:51:12.575Z,52.90
2017-05-26T07:53:41.603Z,51.90
2017-05-26T07:56:10.633Z,51.20
2017-05-26T07:58:39.667Z,50.90
2017-05-26T08:01:08.695Z,50.80
2017-05-26T08:03:38.606Z,50.70
2017-05-26T08:06:07.657Z,50.70
2017-05-26T08:08:36.704Z,50.30
2017-05-26T08:11:05.724Z,49.90
2017-05-26T08:13:35.675Z,49.50
2017-05-26T08:16:05.192Z,49.50
2017-05-26T08:18:34.234Z,49.20
2017-05-26T08:21:03.271Z,49.60
2017-05-26T08:23:32.392Z,49.20
2017-05-26T08:26:02.392Z,49.10
2017-05-26T08:28:31.473Z,50.20
2017-05-26T08:31:00.498Z,49.80
2017-05-26T08:33:29.514Z,48.60
2017-05-26T08:35:58.673Z,48.40
2017-05-26T08:38:27.760Z,48.10
2017-05-26T08:40:56.782Z,48.90
2017-05-26T08:43:25.801Z,48.00
2017-05-26T08:45:54.944Z,48.00
2017-05-26T08:48:23.965Z,47.80
2017-05-26T08:50:52.997Z,47.60
2017-05-26T08:53:22.086Z,47.00
2017-05-26T08:55:51.325Z,47.40
2017-05-26T08:58:20.792Z,47.50
2017-05-26T09:00:49.914Z,47.60
2017-05-26T09:03:19.021Z,48.10
2017-05-26T09:05:48.045Z,47.70
2017-05-26T09:08:17.254Z,47.40
2017-05-26T09:10:46.307Z,47.50
2017-05-26T09:13:15.360Z,47.10
2017-05-26T09:15:44.398Z,47.10
2017-05-26T09:18:13.448Z,47.50
2017-05-26T09:20:42.469Z,47.60
2017-05-26T09:23:11.489Z,47.60
2017-05-26T09:25:40.549Z,47.80
2017-05-26T09:28:09.578Z,48.00
2017-05-26T09:30:39.055Z,47.80
2017-05-26T09:33:09.036Z,47.70
2017-05-26T09:35:38.046Z,47.10
2017-05-26T09:38:07.109Z,46.60
2017-05-26T09:40:36.131Z,46.30
2017-05-26T09:43:05.151Z,46.30
2017-05-26T09:45:34.222Z,46.40
2017-05-26T09:48:03.246Z,46.40
2017-05-26T09:50:32.378Z,46.20
2017-05-26T09:53:01.478Z,45.90
2017-05-26T09:55:31.235Z,45.40
2017-05-26T09:58:00.282Z,45.50
2017-05-26T10:00:29.328Z,44.90
2017-05-26T10:02:58.374Z,45.20
2017-05-26T10:05:27.448Z,46.20
2017-05-26T10:07:56.474Z,44.90
2017-05-26T10:10:26.573Z,44.90
2017-05-26T10:12:55.774Z,45.00
2017-05-26T10:15:24.829Z,45.30
2017-05-26T10:17:53.937Z,44.60
2017-05-26T10:20:22.958Z,43.90
2017-05-26T10:22:51.997Z,44.10
2017-05-26T10:25:21.061Z,43.40
2017-05-26T10:27:50.109Z,42.90
2017-05-26T10:30:26.897Z,42.50
2017-05-26T10:32:56.074Z,42.20
2017-05-26T10:35:25.214Z,42.90
2017-05-26T10:37:54.252Z,42.60
2017-05-26T10:40:23.401Z,42.20
2017-05-26T10:42:52.400Z,42.20
2017-05-26T10:45:21.498Z,41.90
2017-05-26T10:47:51.475Z,42.00
2017-05-26T10:50:20.518Z,41.80
2017-05-26T10:52:49.571Z,41.60
2017-05-26T10:55:18.592Z,41.10
2017-05-26T10:57:47.613Z,40.80
2017-05-26T11:00:16.664Z,41.20
2017-05-26T11:02:45.706Z,40.70
2017-05-26T11:05:14.723Z,40.90
2017-05-26T11:07:43.752Z,40.80
2017-05-26T11:10:12.781Z,41.00
2017-05-26T11:12:41.814Z,40.90
2017-05-26T11:15:10.854Z,40.30
2017-05-26T11:17:39.864Z,40.10
2017-05-26T11:20:08.882Z,40.20
2017-05-26T11:22:37.922Z,40.10
2017-05-26T11:25:06.970Z,38.90
2017-05-26T11:27:35.981Z,39.10
2017-05-26T11:30:05.011Z,39.60
2017-05-26T11:32:34.041Z,40.20
2017-05-26T11:35:03.056Z,39.70
2017-05-26T11:37:32.060Z,39.70
2017-05-26T11:40:01.796Z,39.00
2017-05-26T11:42:30.796Z,39.10
2017-05-26T11:44:59.819Z,38.20
2017-05-26T11:47:28.890Z,38.20
2017-05-26T11:49:57.914Z,38.20
2017-05-26T11:52:27.070Z,38.20
2017-05-26T11:54:56.101Z,38.90
2017-05-26T11:57:25.127Z,38.20
2017-05-26T11:59:54.190Z,38.30
2017-05-26T12:02:23.214Z,37.20
2017-05-26T12:04:52.274Z,36.90
2017-05-26T12:07:21.281Z,36.80
2017-05-26T12:09:50.299Z,36.90
2017-05-26T12:12:19.424Z,36.60
2017-05-26T12:14:48.554Z,36.20
2017-05-26T12:17:17.580Z,35.80
2017-05-26T12:19:46.617Z,35.60
2017-05-26T12:22:15.655Z,35.30
2017-05-26T12:24:44.709Z,34.90
2017-05-26T12:27:13.909Z,35.00
2017-05-26T12:29:42.941Z,35.20
2017-05-26T12:32:11.975Z,35.00
2017-05-26T12:34:41.220Z,35.10
2017-05-26T12:37:10.282Z,34.80
2017-05-26T12:39:40.261Z,35.20
2017-05-26T12:42:09.272Z,34.00
2017-05-26T12:44:38.311Z,33.90
2017-05-26T12:47:07.372Z,34.60
2017-05-26T12:49:36.367Z,34.80
2017-05-26T12:52:05.410Z,35.00
2017-05-26T12:54:34.435Z,34.00
2017-05-26T12:57:03.452Z,34.20
2017-05-26T12:59:32.488Z,34.90
2017-05-26T13:02:01.536Z,35.00
2017-05-26T13:04:30.688Z,34.60
2017-05-26T13:06:59.728Z,34.00
2017-05-26T13:09:28.723Z,34.00
2017-05-26T13:11:57.771Z,33.90
2017-05-26T13:14:26.807Z,34.20
2017-05-26T13:16:55.822Z,34.20
2017-05-26T13:19:24.853Z,34.50
2017-05-26T13:21:53.921Z,35.10
2017-05-26T13:24:23.088Z,35.10
2017-05-26T13:26:52.186Z,35.10
2017-05-26T13:29:21.199Z,35.70
2017-05-26T13:31:50.217Z,35.90
2017-05-26T13:34:19.221Z,35.60
2017-05-26T13:36:48.258Z,36.10
2017-05-26T13:39:17.275Z,36.20
2017-05-26T13:41:46.305Z,36.20
2017-05-26T13:44:15.330Z,36.40
2017-05-26T13:46:44.358Z,36.40
2017-05-26T13:49:13.382Z,36.60
2017-05-26T13:51:42.525Z,36.50
2017-05-26T13:54:11.575Z,36.60
2017-05-26T13:56:40.621Z,36.60
2017-05-26T13:59:09.649Z,36.80
2017-05-26T14:01:38.686Z,36.90
2017-05-26T14:04:07.720Z,37.00
2017-05-26T14:06:39.869Z,36.70
2017-05-26T14:09:08.920Z,36.90
2017-05-26T14:11:38.026Z,36.80
2017-05-26T14:14:07.089Z,36.70
2017-05-26T14:16:36.128Z,36.80
2017-05-26T14:19:05.138Z,37.00
2017-05-26T14:21:34.187Z,37.50
2017-05-26T14:24:03.243Z,37.10
2017-05-26T14:26:32.305Z,37.00
2017-05-26T14:29:01.332Z,37.20
2017-05-26T14:31:30.369Z,36.90
2017-05-26T14:33:59.383Z,37.00
2017-05-26T14:36:28.419Z,36.90
2017-05-26T14:38:57.430Z,36.80
2017-05-26T14:41:26.477Z,36.90
2017-05-26T14:43:55.496Z,37.20
2017-05-26T14:46:24.545Z,37.10
2017-05-26T14:48:53.560Z,37.30
2017-05-26T14:51:22.577Z,37.10
2017-05-26T14:53:51.702Z,37.20
2017-05-26T14:56:20.728Z,37.30
2017-05-26T14:58:49.750Z,37.80
2017-05-26T15:01:18.781Z,37.50
2017-05-26T15:03:47.841Z,37.30
2017-05-26T15:06:16.896Z,37.20
2017-05-26T15:08:45.922Z,37.30
2017-05-26T15:11:14.934Z,37.20
2017-05-26T15:13:43.973Z,37.20
2017-05-26T15:16:12.992Z,37.30
2017-05-26T15:18:42.023Z,37.40
2017-05-26T15:21:11.128Z,37.50
2017-05-26T15:23:40.293Z,37.60
2017-05-26T15:26:09.699Z,37.80
2017-05-26T15:28:38.687Z,38.30
2017-05-26T15:31:07.727Z,37.90
2017-05-26T15:33:36.749Z,38.30
2017-05-26T15:36:05.791Z,38.00
2017-05-26T15:38:34.814Z,37.80
2017-05-26T15:41:03.850Z,37.80
2017-05-26T15:43:32.859Z,38.00
2017-05-26T15:46:01.895Z,37.80
2017-05-26T15:48:30.956Z,37.60
2017-05-26T15:50:59.976Z,37.40
2017-05-26T15:53:29.016Z,37.10
2017-05-26T15:55:58.063Z,36.80
2017-05-26T15:58:27.078Z,37.00
2017-05-26T16:00:56.130Z,36.80
2017-05-26T16:03:25.179Z,36.70
2017-05-26T16:05:54.248Z,36.60
2017-05-26T16:08:23.263Z,36.30
2017-05-26T16:10:52.310Z,36.30
2017-05-26T16:13:21.345Z,36.20
2017-05-26T16:15:50.385Z,36.30
2017-05-26T16:18:19.412Z,36.00
2017-05-26T16:20:48.429Z,35.60
2017-05-26T16:23:17.469Z,35.70
2017-05-26T16:25:46.522Z,36.00
2017-05-26T16:28:15.557Z,36.20
2017-05-26T16:30:44.596Z,36.00
2017-05-26T16:33:13.626Z,36.10
2017-05-26T16:35:42.661Z,36.10
2017-05-26T16:38:11.691Z,35.70
2017-05-26T16:40:40.749Z,35.90
2017-05-26T16:43:09.766Z,35.60
2017-05-26T16:45:38.811Z,35.80
2017-05-26T16:48:07.880Z,35.90
2017-05-26T16:50:36.884Z,35.60
2017-05-26T16:53:05.884Z,35.50
2017-05-26T16:55:34.926Z,35.80
2017-05-26T16:58:03.946Z,35.50
2017-05-26T17:00:33.263Z,35.30
2017-05-26T17:03:02.574Z,35.00
2017-05-26T17:05:31.617Z,35.10
2017-05-26T17:08:01.005Z,35.10
2017-05-26T17:10:30.043Z,34.70
2017-05-26T17:12:59.094Z,34.70
2017-05-26T17:15:28.145Z,35.00
2017-05-26T17:17:57.176Z,35.40
2017-05-26T17:20:26.200Z,35.50
2017-05-26T17:22:55.327Z,35.60
2017-05-26T17:25:24.357Z,35.70
2017-05-26T17:27:53.377Z,35.90
2017-05-26T17:30:22.445Z,35.70
2017-05-26T17:32:51.453Z,35.80
2017-05-26T17:35:20.490Z,35.80
2017-05-26T17:37:50.163Z,35.80
2017-05-26T17:40:19.303Z,35.80
2017-05-26T17:42:48.427Z,35.90
2017-05-26T17:45:17.506Z,36.00
2017-05-26T17:47:46.529Z,36.50
2017-05-26T17:50:15.702Z,36.20
2017-05-26T17:52:44.715Z,36.50
2017-05-26T17:55:13.736Z,36.60
2017-05-26T17:57:42.750Z,36.70
2017-05-26T18:00:12.039Z,36.90
2017-05-26T18:02:41.093Z,36.90
2017-05-26T18:05:10.194Z,36.90
2017-05-26T18:07:39.229Z,36.80
2017-05-26T18:10:08.453Z,36.80
2017-05-26T18:12:38.424Z,36.70
2017-05-26T18:15:07.513Z,36.80
2017-05-26T18:17:36.611Z,36.80
2017-05-26T18:20:05.645Z,37.00
2017-05-26T18:22:34.669Z,37.00
2017-05-26T18:25:03.729Z,37.00
2017-05-26T18:27:32.936Z,37.10
2017-05-26T18:30:01.961Z,37.10
2017-05-26T18:32:31.063Z,36.90
2017-05-26T18:35:00.329Z,37.00
2017-05-26T18:37:29.420Z,37.40
2017-05-26T18:39:58.555Z,37.20
2017-05-26T18:42:27.871Z,37.00
2017-05-26T18:44:57.024Z,37.00
2017-05-26T18:47:26.051Z,37.20
2017-05-26T18:49:55.090Z,37.30
2017-05-26T18:52:24.144Z,37.90
2017-05-26T18:54:53.197Z,37.20
2017-05-26T18:57:22.245Z,37.20
2017-05-26T18:59:51.297Z,37.20
2017-05-26T19:02:20.373Z,37.20
2017-05-26T19:04:49.391Z,37.20
2017-05-26T19:07:18.451Z,37.30
2017-05-26T19:09:47.562Z,37.20
2017-05-26T19:12:16.581Z,37.20
2017-05-26T19:14:45.617Z,37.30
2017-05-26T19:17:14.679Z,37.40
2017-05-26T19:19:43.717Z,37.60
2017-05-26T19:22:12.776Z,37.60
2017-05-26T19:24:41.832Z,37.60
2017-05-26T19:27:10.867Z,37.70
2017-05-26T19:29:39.908Z,37.80
2017-05-26T19:32:08.968Z,37.80
2017-05-26T19:34:38.079Z,37.80
2017-05-26T19:37:07.097Z,38.20
2017-05-26T19:39:36.163Z,38.00
2017-05-26T19:42:05.296Z,38.00
2017-05-26T19:44:34.377Z,38.20
2017-05-26T19:47:03.417Z,38.10
2017-05-26T19:49:32.463Z,38.20
2017-05-26T19:52:01.534Z,38.20
2017-05-26T19:54:30.577Z,38.20
2017-05-26T19:56:59.609Z,38.20
2017-05-26T19:59:28.758Z,38.20
2017-05-26T20:01:57.775Z,38.10
2017-05-26T20:04:26.957Z,38.10
2017-05-26T20:06:56.783Z,38.10
2017-05-26T20:09:25.846Z,38.20
2017-05-26T20:11:54.968Z,38.30
2017-05-26T20:14:24.120Z,38.40
2017-05-26T20:16:53.266Z,38.40
2017-05-26T20:19:22.447Z,38.40
2017-05-26T20:21:51.650Z,38.50
2017-05-26T20:24:21.157Z,38.60
2017-05-26T20:26:50.203Z,38.70
2017-05-26T20:29:19.547Z,38.70
2017-05-26T20:31:48.740Z,38.80
2017-05-26T20:34:17.963Z,38.90
2017-05-26T20:36:47.874Z,39.00
2017-05-26T20:39:16.952Z,39.10
2017-05-26T20:41:46.046Z,39.40
2017-05-26T20:44:15.042Z,39.50
2017-05-26T20:46:44.221Z,39.80
2017-05-26T20:49:13.293Z,39.80
2017-05-26T20:51:42.372Z,40.00
2017-05-26T20:54:11.476Z,40.20
2017-05-26T20:56:40.527Z,40.30
2017-05-26T20:59:09.592Z,40.50
2017-05-26T21:01:38.628Z,40.60
2017-05-26T21:04:07.698Z,40.60
2017-05-26T21:06:36.764Z,40.50
2017-05-26T21:09:05.835Z,40.60
2017-05-26T21:11:35.108Z,40.70
2017-05-26T21:14:05.668Z,40.80
2017-05-26T21:16:34.749Z,40.80
2017-05-26T21:19:03.767Z,40.80
2017-05-26T21:21:32.913Z,40.70
2017-05-26T21:24:01.943Z,40.80
2017-05-26T21:26:30.966Z,40.90
2017-05-26T21:29:00.030Z,41.00
2017-05-26T21:31:29.069Z,41.10
2017-05-26T21:33:58.121Z,41.10
2017-05-26T21:36:27.148Z,41.10
2017-05-26T21:38:56.209Z,41.80
2017-05-26T21:41:25.269Z,41.10
2017-05-26T21:43:54.361Z,41.20
2017-05-26T21:46:23.374Z,41.40
2017-05-26T21:48:52.411Z,41.70
2017-05-26T21:51:21.458Z,41.70
2017-05-26T21:53:50.494Z,41.80
2017-05-26T21:56:19.571Z,42.00
2017-05-26T21:58:48.597Z,42.20
2017-05-26T22:01:17.631Z,42.30
2017-05-26T22:03:46.680Z,43.00
2017-05-26T22:06:15.706Z,42.20
2017-05-26T22:08:44.708Z,42.20
2017-05-26T22:11:13.759Z,42.20
2017-05-26T22:13:42.766Z,42.20
2017-05-26T22:16:11.821Z,42.20
2017-05-26T22:18:40.834Z,42.50
2017-05-26T22:21:09.881Z,42.60
2017-05-26T22:23:39.085Z,42.90
2017-05-26T22:26:14.178Z,43.10
2017-05-26T22:28:43.210Z,43.10
2017-05-26T22:31:12.230Z,43.10
2017-05-26T22:33:41.245Z,43.10
2017-05-26T22:36:10.275Z,43.10
2017-05-26T22:38:39.294Z,43.30
2017-05-26T22:41:08.317Z,43.30
2017-05-26T22:43:37.357Z,43.20
2017-05-26T22:46:06.369Z,43.40
2017-05-26T22:48:35.398Z,43.50
2017-05-26T22:51:04.428Z,43.30
2017-05-26T22:53:33.496Z,43.10
2017-05-26T22:59:03.536Z,43.30
2017-05-26T23:01:32.558Z,43.60
2017-05-26T23:04:01.576Z,43.60
2017-05-26T23:06:30.625Z,43.60
2017-05-26T23:08:59.635Z,43.70
2017-05-26T23:11:28.664Z,43.70
2017-05-26T23:13:57.725Z,43.80
2017-05-26T23:16:26.736Z,43.80
2017-05-26T23:18:55.758Z,43.80
2017-05-26T23:21:24.777Z,43.90
2017-05-26T23:23:53.789Z,44.00
2017-05-26T23:26:22.809Z,44.00
2017-05-26T23:28:51.860Z,44.00
2017-05-26T23:31:20.897Z,44.00
2017-05-26T23:33:49.905Z,43.90
2017-05-26T23:36:18.933Z,43.90
2017-05-26T23:38:47.963Z,44.00
2017-05-26T23:41:16.971Z,44.00
2017-05-26T23:43:46.000Z,44.10
2017-05-26T23:46:15.014Z,44.10
2017-05-26T23:48:44.055Z,44.10
2017-05-26T23:51:13.074Z,44.10
2017-05-26T23:53:42.099Z,44.30
2017-05-26T23:56:11.130Z,44.30
2017-05-26T23:58:40.175Z,44.40
